createdAt,value
2017-02-16T00:00:47.999Z,23.95
2017-02-16T00:01:47.927Z,23.95
2017-02-16T00:02:47.868Z,23.92
2017-02-16T00:03:47.803Z,23.91
2017-02-16T00:04:47.738Z,23.95
2017-02-16T00:05:47.725Z,23.84
2017-02-16T00:06:47.612Z,23.91
2017-02-16T00:07:47.601Z,23.81
2017-02-16T00:08:47.499Z,23.91
2017-02-16T00:09:47.046Z,23.87
2017-02-16T00:10:47.365Z,23.93
2017-02-16T00:11:47.312Z,23.86
2017-02-16T00:12:47.254Z,23.98
2017-02-16T00:13:47.172Z,23.92
2017-02-16T00:14:47.122Z,23.98
2017-02-16T00:15:47.046Z,23.96
2017-02-16T00:16:46.989Z,23.96
2017-02-16T00:17:46.925Z,23.95
2017-02-16T00:18:46.867Z,23.92
2017-02-16T00:19:46.804Z,23.91
2017-02-16T00:20:46.732Z,23.8
2017-02-16T00:21:46.678Z,23.86
2017-02-16T00:22:46.616Z,23.87
2017-02-16T00:23:46.544Z,23.83
2017-02-16T00:24:46.479Z,23.81
2017-02-16T00:25:46.433Z,23.92
2017-02-16T00:26:46.355Z,23.88
2017-02-16T00:27:46.316Z,23.87
2017-02-16T00:28:46.239Z,23.91
2017-02-16T00:29:46.170Z,23.92
2017-02-16T00:30:46.119Z,23.92
2017-02-16T00:31:46.057Z,23.87
2017-02-16T00:32:45.984Z,23.81
2017-02-16T00:33:45.931Z,23.98
2017-02-16T00:34:45.867Z,23.88
2017-02-16T00:35:45.798Z,23.95
2017-02-16T00:36:45.740Z,23.95
2017-02-16T00:37:45.666Z,23.81
2017-02-16T00:38:45.609Z,23.86
2017-02-16T00:39:45.548Z,23.81
2017-02-16T00:40:45.491Z,23.92
2017-02-16T00:41:45.041Z,23.84
2017-02-16T00:42:45.352Z,23.83
2017-02-16T00:43:45.292Z,23.87
2017-02-16T00:44:45.275Z,23.86
2017-02-16T00:45:45.186Z,23.88
2017-02-16T00:46:45.113Z,23.93
2017-02-16T00:47:45.038Z,23.81
2017-02-16T00:48:45.003Z,23.83
2017-02-16T00:49:44.547Z,23.91
2017-02-16T00:50:44.863Z,23.91
2017-02-16T00:51:44.799Z,23.88
2017-02-16T00:52:44.728Z,23.87
2017-02-16T00:53:44.666Z,23.88
2017-02-16T00:54:44.602Z,23.86
2017-02-16T00:55:44.543Z,23.84
2017-02-16T00:56:44.472Z,23.88
2017-02-16T00:57:44.415Z,23.8
2017-02-16T00:58:44.346Z,23.8
2017-02-16T00:59:44.297Z,23.83
2017-02-16T01:01:15.829Z,23.88
2017-02-16T01:02:15.749Z,23.81
2017-02-16T01:03:15.687Z,23.84
2017-02-16T01:04:15.247Z,23.84
2017-02-16T01:05:15.555Z,23.86
2017-02-16T01:06:15.895Z,23.81
2017-02-16T01:07:15.443Z,23.81
2017-02-16T01:08:14.982Z,23.87
2017-02-16T01:09:14.957Z,23.8
2017-02-16T01:10:15.243Z,23.84
2017-02-16T01:11:15.328Z,23.91
2017-02-16T01:12:15.116Z,23.84
2017-02-16T01:13:14.670Z,23.91
2017-02-16T01:14:15.010Z,23.88
2017-02-16T01:15:14.584Z,23.83
2017-02-16T01:16:14.478Z,23.78
2017-02-16T01:17:14.425Z,23.81
2017-02-16T01:18:14.356Z,23.86
2017-02-16T01:19:14.289Z,23.78
2017-02-16T01:20:14.631Z,23.83
2017-02-16T01:21:14.559Z,23.83
2017-02-16T01:22:14.110Z,23.84
2017-02-16T01:23:14.422Z,23.88
2017-02-16T01:24:14.372Z,23.83
2017-02-16T01:25:14.298Z,23.78
2017-02-16T01:26:14.230Z,23.86
2017-02-16T01:27:14.172Z,23.88
2017-02-16T01:28:14.109Z,23.81
2017-02-16T01:29:14.057Z,23.83
2017-02-16T01:30:13.993Z,23.73
2017-02-16T01:31:13.939Z,23.8
2017-02-16T01:32:14.114Z,23.81
2017-02-16T01:33:13.795Z,23.84
2017-02-16T01:34:13.739Z,23.86
2017-02-16T01:35:13.665Z,23.73
2017-02-16T01:36:13.610Z,23.8
2017-02-16T01:37:13.795Z,23.8
2017-02-16T01:38:13.505Z,23.87
2017-02-16T01:39:13.414Z,23.84
2017-02-16T01:40:13.361Z,23.87
2017-02-16T01:41:13.294Z,23.87
2017-02-16T01:42:12.840Z,23.86
2017-02-16T01:43:13.189Z,23.96
2017-02-16T01:44:12.746Z,23.88
2017-02-16T01:45:13.036Z,23.8
2017-02-16T01:46:12.591Z,23.81
2017-02-16T01:47:12.535Z,23.92
2017-02-16T01:48:12.847Z,23.81
2017-02-16T01:49:12.783Z,23.88
2017-02-16T01:50:12.337Z,23.91
2017-02-16T01:51:12.676Z,23.93
2017-02-16T01:52:12.595Z,23.88
2017-02-16T01:53:12.530Z,23.87
2017-02-16T01:54:12.087Z,23.93
2017-02-16T01:55:12.024Z,23.93
2017-02-16T01:56:11.969Z,23.83
2017-02-16T01:57:12.281Z,23.81
2017-02-16T01:58:12.217Z,23.92
2017-02-16T01:59:12.168Z,23.8
2017-02-16T02:00:12.094Z,23.91
2017-02-16T02:01:12.042Z,23.96
2017-02-16T02:02:11.964Z,23.84
2017-02-16T02:03:11.905Z,23.96
2017-02-16T02:04:11.847Z,23.88
2017-02-16T02:05:12.078Z,23.83
2017-02-16T02:06:11.718Z,23.88
2017-02-16T02:07:11.657Z,23.78
2017-02-16T02:08:11.588Z,23.88
2017-02-16T02:09:11.567Z,23.83
2017-02-16T02:10:11.709Z,23.81
2017-02-16T02:11:11.428Z,23.92
2017-02-16T02:12:11.355Z,23.84
2017-02-16T02:13:11.285Z,23.93
2017-02-16T02:14:11.228Z,23.83
2017-02-16T02:15:11.150Z,23.84
2017-02-16T02:16:11.098Z,23.84
2017-02-16T02:17:11.030Z,23.86
2017-02-16T02:18:10.979Z,23.8
2017-02-16T02:19:10.920Z,23.8
2017-02-16T02:20:10.460Z,23.93
2017-02-16T02:21:10.386Z,23.91
2017-02-16T02:22:10.705Z,23.91
2017-02-16T02:23:10.644Z,23.95
2017-02-16T02:24:10.585Z,23.86
2017-02-16T02:25:10.138Z,23.78
2017-02-16T02:26:10.455Z,23.83
2017-02-16T02:27:10.006Z,23.86
2017-02-16T02:28:10.328Z,23.84
2017-02-16T02:29:10.275Z,23.8
2017-02-16T02:30:09.856Z,23.96
2017-02-16T02:31:10.150Z,23.87
2017-02-16T02:32:10.074Z,23.87
2017-02-16T02:33:09.651Z,23.91
2017-02-16T02:34:09.952Z,23.81
2017-02-16T02:35:09.890Z,23.88
2017-02-16T02:36:09.836Z,23.8
2017-02-16T02:37:09.762Z,23.87
2017-02-16T02:38:09.712Z,23.91
2017-02-16T02:39:09.654Z,23.88
2017-02-16T02:40:09.587Z,23.88
2017-02-16T02:41:09.516Z,23.84
2017-02-16T02:42:09.459Z,23.91
2017-02-16T02:43:09.383Z,23.84
2017-02-16T02:44:09.322Z,23.84
2017-02-16T02:45:09.257Z,23.88
2017-02-16T02:46:09.196Z,23.84
2017-02-16T02:47:09.143Z,23.83
2017-02-16T02:48:09.079Z,23.83
2017-02-16T02:49:09.017Z,23.84
2017-02-16T02:50:08.955Z,23.8
2017-02-16T02:51:08.878Z,23.93
2017-02-16T02:52:08.816Z,23.84
2017-02-16T02:53:08.759Z,23.96
2017-02-16T02:54:08.691Z,23.88
2017-02-16T02:55:08.253Z,23.93
2017-02-16T02:56:08.567Z,23.95
2017-02-16T02:57:08.116Z,23.86
2017-02-16T02:58:08.053Z,23.83
2017-02-16T02:59:08.374Z,23.96
2017-02-16T03:00:07.938Z,23.88
2017-02-16T03:01:08.256Z,23.84
2017-02-16T03:02:08.190Z,23.84
2017-02-16T03:03:08.127Z,23.88
2017-02-16T03:04:08.061Z,23.96
2017-02-16T03:05:08.001Z,23.91
2017-02-16T03:06:07.583Z,23.81
2017-02-16T03:07:07.886Z,23.8
2017-02-16T03:08:07.819Z,23.86
2017-02-16T03:09:07.746Z,23.95
2017-02-16T03:10:07.689Z,23.83
2017-02-16T03:11:07.623Z,23.96
2017-02-16T03:12:07.555Z,23.84
2017-02-16T03:13:07.496Z,23.91
2017-02-16T03:14:07.435Z,23.96
2017-02-16T03:15:07.371Z,23.8
2017-02-16T03:16:07.309Z,23.99
2017-02-16T03:17:06.858Z,23.8
2017-02-16T03:18:07.181Z,23.8
2017-02-16T03:19:07.119Z,23.95
2017-02-16T03:20:07.061Z,23.84
2017-02-16T03:21:06.990Z,23.98
2017-02-16T03:22:06.927Z,23.98
2017-02-16T03:23:06.877Z,23.93
2017-02-16T03:24:06.797Z,23.91
2017-02-16T03:25:06.374Z,23.86
2017-02-16T03:26:06.689Z,23.96
2017-02-16T03:27:06.613Z,23.88
2017-02-16T03:28:06.554Z,23.93
2017-02-16T03:29:06.496Z,23.92
2017-02-16T03:30:06.462Z,23.92
2017-02-16T03:31:06.356Z,23.8
2017-02-16T03:32:06.301Z,23.83
2017-02-16T03:33:06.238Z,23.99
2017-02-16T03:34:06.191Z,23.84
2017-02-16T03:35:06.119Z,23.86
2017-02-16T03:36:06.062Z,23.92
2017-02-16T03:37:05.594Z,23.86
2017-02-16T03:38:05.979Z,23.87
2017-02-16T03:39:05.852Z,23.92
2017-02-16T03:40:05.795Z,23.95
2017-02-16T03:41:05.729Z,23.88
2017-02-16T03:42:05.293Z,23.98
2017-02-16T03:43:05.616Z,23.95
2017-02-16T03:44:05.545Z,24.1
2017-02-16T03:45:05.449Z,24.1
2017-02-16T03:46:05.427Z,24.02
2017-02-16T03:47:05.350Z,24.18
2017-02-16T03:48:05.297Z,24.16
2017-02-16T03:49:05.225Z,24.17
2017-02-16T03:50:04.777Z,24.14
2017-02-16T03:51:05.105Z,24.23
2017-02-16T03:52:05.036Z,24.17
2017-02-16T03:53:04.993Z,24.24
2017-02-16T03:54:04.923Z,24.28
2017-02-16T03:55:04.862Z,24.29
2017-02-16T03:56:04.782Z,24.28
2017-02-16T03:57:04.743Z,24.23
2017-02-16T03:58:04.670Z,24.28
2017-02-16T03:59:04.600Z,24.32
2017-02-16T04:00:04.537Z,24.33
2017-02-16T04:01:04.472Z,24.4
2017-02-16T04:02:04.408Z,24.26
2017-02-16T04:03:04.364Z,24.26
2017-02-16T04:04:04.303Z,24.29
2017-02-16T04:05:04.246Z,24.23
2017-02-16T04:06:04.164Z,24.18
2017-02-16T04:07:04.096Z,24.29
2017-02-16T04:08:04.034Z,24.32
2017-02-16T04:09:03.994Z,24.23
2017-02-16T04:10:03.907Z,24.33
2017-02-16T04:11:03.864Z,24.23
2017-02-16T04:12:03.789Z,24.26
2017-02-16T04:13:03.731Z,24.26
2017-02-16T04:14:03.679Z,24.26
2017-02-16T04:15:03.607Z,24.26
2017-02-16T04:16:03.536Z,24.26
2017-02-16T04:17:03.472Z,24.24
2017-02-16T04:18:03.032Z,24.23
2017-02-16T04:19:03.359Z,24.2
2017-02-16T04:20:03.298Z,24.18
2017-02-16T04:21:03.222Z,24.28
2017-02-16T04:22:03.161Z,24.23
2017-02-16T04:23:03.098Z,24.24
2017-02-16T04:24:03.046Z,24.2
2017-02-16T04:25:02.987Z,24.2
2017-02-16T04:26:02.912Z,24.14
2017-02-16T04:27:02.847Z,24.23
2017-02-16T04:28:02.786Z,24.11
2017-02-16T04:29:02.728Z,24.16
2017-02-16T04:30:02.691Z,24.14
2017-02-16T04:31:02.208Z,24.16
2017-02-16T04:32:02.533Z,24.13
2017-02-16T04:33:02.494Z,24.14
2017-02-16T04:34:02.416Z,24.18
2017-02-16T04:35:02.346Z,24.16
2017-02-16T04:36:02.283Z,24.13
2017-02-16T04:37:02.227Z,24.16
2017-02-16T04:38:02.172Z,24.16
2017-02-16T04:39:02.113Z,24.14
2017-02-16T04:40:02.040Z,24.14
2017-02-16T04:41:01.972Z,24.13
2017-02-16T04:42:01.917Z,24.18
2017-02-16T04:43:01.843Z,24.18
2017-02-16T04:44:01.783Z,24.18
2017-02-16T04:45:01.724Z,24.14
2017-02-16T04:46:01.668Z,24.14
2017-02-16T04:47:01.607Z,24.13
2017-02-16T04:48:01.539Z,24.16
2017-02-16T04:49:01.488Z,24.18
2017-02-16T04:50:01.415Z,24.08
2017-02-16T04:51:01.352Z,24.1
2017-02-16T04:52:01.289Z,24.16
2017-02-16T04:53:01.235Z,24.1
2017-02-16T04:54:01.159Z,24.14
2017-02-16T04:55:01.102Z,24.18
2017-02-16T04:56:01.035Z,24.17
2017-02-16T04:57:00.975Z,24.11
2017-02-16T04:58:00.914Z,24.1
2017-02-16T04:59:00.853Z,24.13
2017-02-16T05:00:00.837Z,24.18
2017-02-16T05:01:00.721Z,24.16
2017-02-16T05:02:00.664Z,24.14
2017-02-16T05:03:00.596Z,24.16
2017-02-16T05:04:00.543Z,24.13
2017-02-16T05:05:00.500Z,24.11
2017-02-16T05:06:00.416Z,24.1
2017-02-16T05:07:00.367Z,24.18
2017-02-16T05:08:00.301Z,24.13
2017-02-16T05:09:00.219Z,24.14
2017-02-16T05:10:00.167Z,24.13
2017-02-16T05:11:00.112Z,24.11
2017-02-16T05:12:00.044Z,24.06
2017-02-16T05:12:59.972Z,24.14
2017-02-16T05:13:59.907Z,24.11
2017-02-16T05:14:59.459Z,24.1
2017-02-16T05:15:59.783Z,24.1
2017-02-16T05:16:59.717Z,24.1
2017-02-16T05:17:59.288Z,24.2
2017-02-16T05:18:59.616Z,24.16
2017-02-16T05:19:59.531Z,24.11
2017-02-16T05:20:59.470Z,24.13
2017-02-16T05:21:59.423Z,24.16
2017-02-16T05:22:59.352Z,24.17
2017-02-16T05:23:59.287Z,24.1
2017-02-16T05:24:59.217Z,24.16
2017-02-16T05:25:59.173Z,24.08
2017-02-16T05:26:59.097Z,24.13
2017-02-16T05:27:59.029Z,24.16
2017-02-16T05:28:58.966Z,24.16
2017-02-16T05:29:58.905Z,24.1
2017-02-16T05:30:58.865Z,24.16
2017-02-16T05:31:58.787Z,24.14
2017-02-16T05:32:58.720Z,24.14
2017-02-16T05:33:58.697Z,24.16
2017-02-16T05:34:58.593Z,24.06
2017-02-16T05:35:58.530Z,24.16
2017-02-16T05:36:58.482Z,24.17
2017-02-16T05:37:58.424Z,24.18
2017-02-16T05:38:58.347Z,24.16
2017-02-16T05:39:58.298Z,24.16
2017-02-16T05:40:58.228Z,24.16
2017-02-16T05:41:58.150Z,24.13
2017-02-16T05:42:58.127Z,24.17
2017-02-16T05:43:58.026Z,24.11
2017-02-16T05:44:57.581Z,24.06
2017-02-16T05:45:57.924Z,24.17
2017-02-16T05:46:57.861Z,24.14
2017-02-16T05:47:57.404Z,24.13
2017-02-16T05:48:57.337Z,24.21
2017-02-16T05:49:57.291Z,24.2
2017-02-16T05:50:57.589Z,24.17
2017-02-16T05:51:57.525Z,24.13
2017-02-16T05:52:57.486Z,24.11
2017-02-16T05:53:57.402Z,24.1
2017-02-16T05:54:57.348Z,24.11
2017-02-16T05:55:57.376Z,24.13
2017-02-16T05:56:57.243Z,24.1
2017-02-16T05:57:57.150Z,24.11
2017-02-16T05:58:57.091Z,24.1
2017-02-16T05:59:57.025Z,24.16
2017-02-16T06:00:56.972Z,24.06
2017-02-16T06:01:56.907Z,24.13
2017-02-16T06:02:56.850Z,24.08
2017-02-16T06:03:56.776Z,24.08
2017-02-16T06:04:56.728Z,24.16
2017-02-16T06:05:56.646Z,24.13
2017-02-16T06:06:56.604Z,24.11
2017-02-16T06:07:56.526Z,24.1
2017-02-16T06:08:56.464Z,24.16
2017-02-16T06:09:56.405Z,24.13
2017-02-16T06:10:56.333Z,24.14
2017-02-16T06:11:56.308Z,24.11
2017-02-16T06:12:56.211Z,24.1
2017-02-16T06:13:56.145Z,24.02
2017-02-16T06:14:56.079Z,24.11
2017-02-16T06:15:56.023Z,24.13
2017-02-16T06:16:55.990Z,24.03
2017-02-16T06:17:55.891Z,24.17
2017-02-16T06:18:55.830Z,24.01
2017-02-16T06:19:55.793Z,24.06
2017-02-16T06:20:55.717Z,24.01
2017-02-16T06:21:55.640Z,24.16
2017-02-16T06:22:55.578Z,24.08
2017-02-16T06:23:55.514Z,24.02
2017-02-16T06:24:55.455Z,24.01
2017-02-16T06:25:55.411Z,24.1
2017-02-16T06:26:55.326Z,23.98
2017-02-16T06:27:55.267Z,24.01
2017-02-16T06:28:55.209Z,24.02
2017-02-16T06:29:55.150Z,24.08
2017-02-16T06:30:55.126Z,23.99
2017-02-16T06:31:55.023Z,24.06
2017-02-16T06:32:54.949Z,24.06
2017-02-16T06:33:54.887Z,24.01
2017-02-16T06:34:54.825Z,24.03
2017-02-16T06:35:55.063Z,24.03
2017-02-16T06:36:54.696Z,24.02
2017-02-16T06:37:54.634Z,23.99
2017-02-16T06:38:54.581Z,23.98
2017-02-16T06:39:54.516Z,24.03
2017-02-16T06:40:54.736Z,24.06
2017-02-16T06:41:54.396Z,24.03
2017-02-16T06:42:54.320Z,24.05
2017-02-16T06:43:54.257Z,24.1
2017-02-16T06:44:54.200Z,24.05
2017-02-16T06:45:53.766Z,24.05
2017-02-16T06:46:54.093Z,24.1
2017-02-16T06:47:54.020Z,24.06
2017-02-16T06:48:53.567Z,23.95
2017-02-16T06:49:53.499Z,24.08
2017-02-16T06:50:53.816Z,24.08
2017-02-16T06:51:53.752Z,24.02
2017-02-16T06:52:53.694Z,23.98
2017-02-16T06:53:53.674Z,24.05
2017-02-16T06:54:53.564Z,24.03
2017-02-16T06:55:53.506Z,24.03
2017-02-16T06:56:53.451Z,24.05
2017-02-16T06:57:53.385Z,23.98
2017-02-16T06:58:53.317Z,23.93
2017-02-16T06:59:53.250Z,23.98
2017-02-16T07:00:53.188Z,23.98
2017-02-16T07:01:53.136Z,23.91
2017-02-16T07:02:53.062Z,24.03
2017-02-16T07:03:52.998Z,24.03
2017-02-16T07:04:52.937Z,23.98
2017-02-16T07:05:52.885Z,24.03
2017-02-16T07:06:52.809Z,23.95
2017-02-16T07:07:52.752Z,23.95
2017-02-16T07:08:52.690Z,24.02
2017-02-16T07:09:52.623Z,24.01
2017-02-16T07:10:52.558Z,23.95
2017-02-16T07:11:52.495Z,23.99
2017-02-16T07:12:52.432Z,23.95
2017-02-16T07:13:52.374Z,24.05
2017-02-16T07:14:52.307Z,23.99
2017-02-16T07:15:52.258Z,24.01
2017-02-16T07:16:52.180Z,23.95
2017-02-16T07:17:52.132Z,23.98
2017-02-16T07:18:52.054Z,23.93
2017-02-16T07:19:51.989Z,23.96
2017-02-16T07:20:51.938Z,23.99
2017-02-16T07:21:51.907Z,23.98
2017-02-16T07:22:51.813Z,23.99
2017-02-16T07:23:51.741Z,24.02
2017-02-16T07:24:51.686Z,23.96
2017-02-16T07:25:51.616Z,23.91
2017-02-16T07:26:51.558Z,23.93
2017-02-16T07:27:51.528Z,23.88
2017-02-16T07:28:51.428Z,23.98
2017-02-16T07:29:51.362Z,23.93
2017-02-16T07:30:51.299Z,23.93
2017-02-16T07:31:51.249Z,23.91
2017-02-16T07:32:51.174Z,23.93
2017-02-16T07:33:51.129Z,23.98
2017-02-16T07:34:51.063Z,23.92
2017-02-16T07:35:50.996Z,23.95
2017-02-16T07:36:50.930Z,23.91
2017-02-16T07:37:50.475Z,23.92
2017-02-16T07:38:50.799Z,23.96
2017-02-16T07:39:50.751Z,23.96
2017-02-16T07:40:50.681Z,23.88
2017-02-16T07:41:50.616Z,23.96
2017-02-16T07:42:50.568Z,23.93
2017-02-16T07:43:50.482Z,23.93
2017-02-16T07:44:50.431Z,23.87
2017-02-16T07:45:50.359Z,23.92
2017-02-16T07:46:50.296Z,23.96
2017-02-16T07:47:50.237Z,23.92
2017-02-16T07:48:50.177Z,24.01
2017-02-16T07:49:50.106Z,23.86
2017-02-16T07:50:50.042Z,23.91
2017-02-16T07:51:49.983Z,23.81
2017-02-16T07:52:49.913Z,23.88
2017-02-16T07:53:49.854Z,23.92
2017-02-16T07:54:49.806Z,23.91
2017-02-16T07:55:49.741Z,23.92
2017-02-16T07:56:49.666Z,23.86
2017-02-16T07:57:49.618Z,23.87
2017-02-16T07:58:49.155Z,23.91
2017-02-16T07:59:49.472Z,23.88
2017-02-16T08:00:49.423Z,23.87
2017-02-16T08:01:49.352Z,23.86
2017-02-16T08:02:49.311Z,23.88
2017-02-16T08:03:49.223Z,23.88
2017-02-16T08:04:49.157Z,23.91
2017-02-16T08:05:49.109Z,23.88
2017-02-16T08:06:49.043Z,23.93
2017-02-16T08:07:48.990Z,23.88
2017-02-16T08:08:48.907Z,23.88
2017-02-16T08:09:48.853Z,23.86
2017-02-16T08:10:48.787Z,23.91
2017-02-16T08:11:48.725Z,23.92
2017-02-16T08:12:48.656Z,23.88
2017-02-16T08:13:48.594Z,23.86
2017-02-16T08:14:48.789Z,23.92
2017-02-16T08:15:48.463Z,23.86
2017-02-16T08:16:48.415Z,23.83
2017-02-16T08:17:48.339Z,23.91
2017-02-16T08:18:47.893Z,23.87
2017-02-16T08:19:48.224Z,23.91
2017-02-16T08:20:48.437Z,23.96
2017-02-16T08:21:47.827Z,23.87
2017-02-16T08:22:48.037Z,23.93
2017-02-16T08:23:47.574Z,23.86
2017-02-16T08:24:47.517Z,23.86
2017-02-16T08:25:48.136Z,23.88
2017-02-16T08:26:47.865Z,23.87
2017-02-16T08:27:47.549Z,24.01
2017-02-16T08:28:48.763Z,23.91
2017-02-16T08:29:47.599Z,23.87
2017-02-16T08:30:47.779Z,23.95
2017-02-16T08:31:47.456Z,23.95
2017-02-16T08:32:47.414Z,23.86
2017-02-16T08:33:47.343Z,23.96
2017-02-16T08:34:46.886Z,23.88
2017-02-16T08:35:47.220Z,23.88
2017-02-16T08:36:47.149Z,23.87
2017-02-16T08:37:47.078Z,23.93
2017-02-16T08:38:47.025Z,23.87
2017-02-16T08:39:46.953Z,23.92
2017-02-16T08:40:46.889Z,23.87
2017-02-16T08:41:46.827Z,23.87
2017-02-16T08:42:46.390Z,23.96
2017-02-16T08:43:46.714Z,23.98
2017-02-16T08:44:46.640Z,24.02
2017-02-16T08:45:46.191Z,23.96
2017-02-16T08:46:46.204Z,23.93
2017-02-16T08:47:46.065Z,24.1
2017-02-16T08:48:46.548Z,24.08
2017-02-16T08:49:46.412Z,24.14
2017-02-16T08:50:46.386Z,24.16
2017-02-16T08:51:45.961Z,24.21
2017-02-16T08:52:46.391Z,24.23
2017-02-16T08:53:46.202Z,24.17
2017-02-16T08:54:46.015Z,24.26
2017-02-16T08:55:46.513Z,24.24
2017-02-16T08:56:46.154Z,24.29
2017-02-16T08:57:45.574Z,24.32
2017-02-16T08:58:45.785Z,24.26
2017-02-16T08:59:45.862Z,24.18
2017-02-16T09:00:46.068Z,24.11
2017-02-16T09:01:45.625Z,23.98
2017-02-16T09:02:45.572Z,23.92
2017-02-16T09:03:45.753Z,23.92
2017-02-16T09:04:45.609Z,23.92
2017-02-16T09:05:45.374Z,24.01
2017-02-16T09:06:44.948Z,24.01
2017-02-16T09:07:45.199Z,24.16
2017-02-16T09:08:45.148Z,24.21
2017-02-16T09:09:44.687Z,24.2
2017-02-16T09:10:45.008Z,24.29
2017-02-16T09:11:44.583Z,24.3
2017-02-16T09:12:44.882Z,24.3
2017-02-16T09:13:44.825Z,24.32
2017-02-16T09:14:44.756Z,24.36
2017-02-16T09:15:45.003Z,24.4
2017-02-16T09:16:44.645Z,24.39
2017-02-16T09:17:44.566Z,24.42
2017-02-16T09:18:44.512Z,24.35
2017-02-16T09:19:44.579Z,24.42
2017-02-16T09:20:44.381Z,24.47
2017-02-16T09:21:44.333Z,24.48
2017-02-16T09:22:44.277Z,24.51
2017-02-16T09:23:43.808Z,24.5
2017-02-16T09:24:44.134Z,24.39
2017-02-16T09:25:44.065Z,24.47
2017-02-16T09:26:44.006Z,24.47
2017-02-16T09:27:43.562Z,24.39
2017-02-16T09:28:44.033Z,24.47
2017-02-16T09:29:43.447Z,24.47
2017-02-16T09:30:44.075Z,24.53
2017-02-16T09:31:43.321Z,24.54
2017-02-16T09:32:43.272Z,24.5
2017-02-16T09:33:43.577Z,24.54
2017-02-16T09:34:43.525Z,24.51
2017-02-16T09:35:43.773Z,24.55
2017-02-16T09:36:43.381Z,24.57
2017-02-16T09:37:43.337Z,24.55
2017-02-16T09:38:43.398Z,24.6
2017-02-16T09:39:43.223Z,24.58
2017-02-16T09:40:43.167Z,24.58
2017-02-16T09:41:43.071Z,24.55
2017-02-16T09:42:43.259Z,24.51
2017-02-16T09:43:43.162Z,24.53
2017-02-16T09:44:42.889Z,24.54
2017-02-16T09:45:42.823Z,24.55
2017-02-16T09:46:42.768Z,24.57
2017-02-16T09:47:42.753Z,24.6
2017-02-16T09:48:42.650Z,24.57
2017-02-16T09:49:42.582Z,24.6
2017-02-16T09:50:42.131Z,24.63
2017-02-16T09:51:42.482Z,24.6
2017-02-16T09:52:42.384Z,24.65
2017-02-16T09:53:42.324Z,24.58
2017-02-16T09:54:42.269Z,24.6
2017-02-16T09:55:42.205Z,24.61
2017-02-16T09:56:42.146Z,24.58
2017-02-16T09:57:42.083Z,24.65
2017-02-16T09:58:42.016Z,24.6
2017-02-16T09:59:41.955Z,24.61
2017-02-16T10:00:42.150Z,24.7
2017-02-16T10:01:41.829Z,24.74
2017-02-16T10:02:41.783Z,24.73
2017-02-16T10:03:41.710Z,24.7
2017-02-16T10:04:41.651Z,24.68
2017-02-16T10:05:41.898Z,24.65
2017-02-16T10:06:41.563Z,24.8
2017-02-16T10:07:41.712Z,24.66
2017-02-16T10:08:41.419Z,24.85
2017-02-16T10:09:41.393Z,24.7
2017-02-16T10:10:41.277Z,24.68
2017-02-16T10:11:41.215Z,24.69
2017-02-16T10:12:41.146Z,24.74
2017-02-16T10:13:41.103Z,24.7
2017-02-16T10:14:41.169Z,24.74
2017-02-16T10:15:40.960Z,24.73
2017-02-16T10:16:41.118Z,24.78
2017-02-16T10:17:40.837Z,24.85
2017-02-16T10:18:40.793Z,24.77
2017-02-16T10:19:40.722Z,24.77
2017-02-16T10:20:40.649Z,24.81
2017-02-16T10:21:40.614Z,24.85
2017-02-16T10:22:40.528Z,24.81
2017-02-16T10:23:40.079Z,24.78
2017-02-16T10:24:40.402Z,24.78
2017-02-16T10:25:40.355Z,24.78
2017-02-16T10:26:40.277Z,24.8
2017-02-16T10:27:40.224Z,24.84
2017-02-16T10:28:40.177Z,24.8
2017-02-16T10:29:40.110Z,24.76
2017-02-16T10:30:40.278Z,24.84
2017-02-16T10:31:39.970Z,24.8
2017-02-16T10:32:39.937Z,24.81
2017-02-16T10:33:40.096Z,24.81
2017-02-16T10:34:39.792Z,24.8
2017-02-16T10:35:39.734Z,24.81
2017-02-16T10:36:39.669Z,24.76
2017-02-16T10:37:39.222Z,24.77
2017-02-16T10:38:39.897Z,24.8
2017-02-16T10:39:39.103Z,24.81
2017-02-16T10:40:39.423Z,24.8
2017-02-16T10:41:39.378Z,24.86
2017-02-16T10:42:39.284Z,24.85
2017-02-16T10:43:39.231Z,24.77
2017-02-16T10:44:39.165Z,24.77
2017-02-16T10:45:39.362Z,24.92
2017-02-16T10:46:39.047Z,24.86
2017-02-16T10:47:38.979Z,24.93
2017-02-16T10:48:38.936Z,24.86
2017-02-16T10:49:38.857Z,24.89
2017-02-16T10:50:38.790Z,24.93
2017-02-16T10:51:38.741Z,24.92
2017-02-16T10:52:38.684Z,24.89
2017-02-16T10:53:38.603Z,24.98
2017-02-16T10:54:38.546Z,24.93
2017-02-16T10:55:38.491Z,24.93
2017-02-16T10:56:38.423Z,24.85
2017-02-16T10:57:38.372Z,24.88
2017-02-16T10:58:38.300Z,24.91
2017-02-16T10:59:37.850Z,24.92
2017-02-16T11:00:38.179Z,24.89
2017-02-16T11:01:38.115Z,24.88
2017-02-16T11:02:38.054Z,24.93
2017-02-16T11:03:37.989Z,24.86
2017-02-16T11:04:37.940Z,24.88
2017-02-16T11:05:37.481Z,24.86
2017-02-16T11:06:37.818Z,24.88
2017-02-16T11:07:37.764Z,24.86
2017-02-16T11:08:37.688Z,24.95
2017-02-16T11:09:37.635Z,24.74
2017-02-16T11:10:37.568Z,24.6
2017-02-16T11:11:37.505Z,24.48
2017-02-16T11:12:37.437Z,24.43
2017-02-16T11:13:37.369Z,24.26
2017-02-16T11:14:37.307Z,24.3
2017-02-16T11:15:37.556Z,24.24
2017-02-16T11:16:37.199Z,24.21
2017-02-16T11:17:37.121Z,24.26
2017-02-16T11:18:37.085Z,24.26
2017-02-16T11:19:37.017Z,24.36
2017-02-16T11:20:37.036Z,24.4
2017-02-16T11:21:36.889Z,24.47
2017-02-16T11:22:36.809Z,24.48
2017-02-16T11:23:36.372Z,24.45
2017-02-16T11:24:36.316Z,24.39
2017-02-16T11:25:36.633Z,24.48
2017-02-16T11:26:36.190Z,24.45
2017-02-16T11:27:36.507Z,24.4
2017-02-16T11:28:36.440Z,24.48
2017-02-16T11:29:36.535Z,24.45
2017-02-16T11:30:36.320Z,24.57
2017-02-16T11:31:36.258Z,24.57
2017-02-16T11:32:36.441Z,24.48
2017-02-16T11:33:36.128Z,24.53
2017-02-16T11:34:36.068Z,24.47
2017-02-16T11:35:36.017Z,24.42
2017-02-16T11:36:35.939Z,24.51
2017-02-16T11:37:35.881Z,24.5
2017-02-16T11:38:35.994Z,24.47
2017-02-16T11:39:35.753Z,24.42
2017-02-16T11:40:35.687Z,24.53
2017-02-16T11:41:35.624Z,24.36
2017-02-16T11:42:35.575Z,24.5
2017-02-16T11:43:35.503Z,24.5
2017-02-16T11:44:35.476Z,24.5
2017-02-16T11:45:35.627Z,24.48
2017-02-16T11:46:35.321Z,24.57
2017-02-16T11:47:35.263Z,24.5
2017-02-16T11:48:35.196Z,24.48
2017-02-16T11:49:35.131Z,24.58
2017-02-16T11:50:35.480Z,24.57
2017-02-16T11:51:35.080Z,24.48
2017-02-16T11:52:34.954Z,24.51
2017-02-16T11:53:34.878Z,24.48
2017-02-16T11:54:34.817Z,24.43
2017-02-16T11:55:35.479Z,24.54
2017-02-16T11:56:34.698Z,24.54
2017-02-16T11:57:34.639Z,24.48
2017-02-16T11:58:34.916Z,24.39
2017-02-16T11:59:34.509Z,24.45
2017-02-16T12:00:34.458Z,24.45
2017-02-16T12:01:34.388Z,24.57
2017-02-16T12:02:34.318Z,24.45
2017-02-16T12:03:34.290Z,24.57
2017-02-16T12:04:34.198Z,24.48
2017-02-16T12:05:34.482Z,24.43
2017-02-16T12:06:34.094Z,24.43
2017-02-16T12:07:34.036Z,24.48
2017-02-16T12:08:33.948Z,24.53
2017-02-16T12:09:33.885Z,24.45
2017-02-16T12:10:33.823Z,24.53
2017-02-16T12:11:34.008Z,24.48
2017-02-16T12:12:33.698Z,24.47
2017-02-16T12:13:33.641Z,24.39
2017-02-16T12:14:33.572Z,24.45
2017-02-16T12:15:33.506Z,24.53
2017-02-16T12:16:33.454Z,24.5
2017-02-16T12:17:33.384Z,24.54
2017-02-16T12:18:33.328Z,24.53
2017-02-16T12:19:33.257Z,24.39
2017-02-16T12:20:33.446Z,24.54
2017-02-16T12:21:33.140Z,24.48
2017-02-16T12:22:33.096Z,24.47
2017-02-16T12:23:33.032Z,24.5
2017-02-16T12:24:33.298Z,24.47
2017-02-16T12:25:32.891Z,24.47
2017-02-16T12:26:32.834Z,24.48
2017-02-16T12:27:32.768Z,24.48
2017-02-16T12:28:32.697Z,24.45
2017-02-16T12:29:32.658Z,24.39
2017-02-16T12:30:32.894Z,24.51
2017-02-16T12:31:32.547Z,24.54
2017-02-16T12:32:32.314Z,24.43
2017-02-16T12:33:32.405Z,24.47
2017-02-16T12:34:32.349Z,24.4
2017-02-16T12:35:32.279Z,24.45
2017-02-16T12:36:32.205Z,24.43
2017-02-16T12:37:32.161Z,24.43
2017-02-16T12:38:32.087Z,24.39
2017-02-16T12:39:32.017Z,24.4
2017-02-16T12:40:31.954Z,24.47
2017-02-16T12:41:31.884Z,24.48
2017-02-16T12:42:31.826Z,24.45
2017-02-16T12:43:31.793Z,24.48
2017-02-16T12:44:31.706Z,24.47
2017-02-16T12:45:31.954Z,24.36
2017-02-16T12:46:31.580Z,24.43
2017-02-16T12:47:31.518Z,24.45
2017-02-16T12:48:31.453Z,24.45
2017-02-16T12:49:31.389Z,24.42
2017-02-16T12:50:31.597Z,24.43
2017-02-16T12:51:31.276Z,24.47
2017-02-16T12:52:31.201Z,24.38
2017-02-16T12:53:31.407Z,24.47
2017-02-16T12:54:31.097Z,24.47
2017-02-16T12:55:31.473Z,24.47